createdAt,value
2022-10-17T00:02:11.638Z,97125.56
2022-10-17T00:04:37.990Z,97120.94
2022-10-17T00:07:04.355Z,97122.56
2022-10-17T00:09:30.718Z,97128.41
2022-10-17T00:11:57.080Z,97130.38
2022-10-17T00:14:23.446Z,97129.72
2022-10-17T00:16:49.799Z,97133.38
2022-10-17T00:19:16.152Z,97140.28
2022-10-17T00:21:42.526Z,97136.41
2022-10-17T00:24:08.896Z,97138.06
2022-10-17T00:26:35.260Z,97150.19
2022-10-17T00:29:01.665Z,97143.81
2022-10-17T00:31:28.108Z,97145.03
2022-10-17T00:33:54.486Z,97150.63
2022-10-17T00:36:20.849Z,97153.03
2022-10-17T00:38:47.215Z,97148.41
2022-10-17T00:41:13.578Z,97149.59
2022-10-17T00:43:39.957Z,97154.59
2022-10-17T00:46:06.323Z,97150.03
2022-10-17T00:48:32.698Z,97148.41
2022-10-17T00:50:59.060Z,97157.53
2022-10-17T00:53:25.508Z,97150.38
2022-10-17T00:55:51.874Z,97162.88
2022-10-17T00:58:18.228Z,97161.38
2022-10-17T01:00:44.593Z,97155.53
2022-10-17T01:03:10.958Z,97156.41
2022-10-17T01:05:37.307Z,97153.81
2022-10-17T01:08:03.752Z,97154.84
2022-10-17T01:10:30.113Z,97156.16
2022-10-17T01:12:56.491Z,97162.75
2022-10-17T01:15:22.857Z,97159.31
2022-10-17T01:17:49.232Z,97160.44
2022-10-17T01:20:15.595Z,97166.00
2022-10-17T01:22:41.952Z,97170.59
2022-10-17T01:25:08.303Z,97168.00
2022-10-17T01:27:34.673Z,97166.00
2022-10-17T01:30:01.043Z,97169.13
2022-10-17T01:32:27.586Z,97166.13
2022-10-17T01:34:54.084Z,97171.00
2022-10-17T01:37:20.461Z,97167.22
2022-10-17T01:39:47.737Z,97176.00
2022-10-17T01:42:14.298Z,97177.56
2022-10-17T01:44:40.655Z,97181.03
2022-10-17T01:47:07.109Z,97181.44
2022-10-17T01:49:33.474Z,97182.00
2022-10-17T01:51:59.834Z,97183.50
2022-10-17T01:54:26.194Z,97182.66
2022-10-17T01:56:52.561Z,97171.00
2022-10-17T01:59:18.928Z,97176.22
2022-10-17T02:01:45.372Z,97168.53
2022-10-17T02:04:11.779Z,97162.66
2022-10-17T02:06:38.161Z,97156.22
2022-10-17T02:09:04.526Z,97158.19
2022-10-17T02:11:30.877Z,97154.66
2022-10-17T02:13:57.238Z,97159.41
2022-10-17T02:16:23.614Z,97171.97
2022-10-17T02:18:49.968Z,97179.75
2022-10-17T02:21:16.321Z,97187.22
2022-10-17T02:23:42.693Z,97187.56
2022-10-17T02:26:09.058Z,97191.94
2022-10-17T02:28:35.502Z,97189.38
2022-10-17T02:31:01.912Z,97187.34
2022-10-17T02:33:28.266Z,97186.59
2022-10-17T02:35:54.632Z,97182.00
2022-10-17T02:38:20.999Z,97182.72
2022-10-17T02:40:47.371Z,97183.25
2022-10-17T02:43:13.741Z,97186.59
2022-10-17T02:45:40.106Z,97193.47
2022-10-17T02:48:06.463Z,97189.94
2022-10-17T02:50:32.836Z,97190.03
2022-10-17T02:52:59.224Z,97196.91
2022-10-17T02:55:25.602Z,97192.59
2022-10-17T02:57:51.960Z,97187.72
2022-10-17T03:00:18.326Z,97195.38
2022-10-17T03:02:44.684Z,97200.69
2022-10-17T03:05:11.051Z,97192.59
2022-10-17T03:07:37.435Z,97192.28
2022-10-17T03:10:03.789Z,97191.06
2022-10-17T03:12:30.431Z,97197.16
2022-10-17T03:14:56.943Z,97199.94
2022-10-17T03:17:23.315Z,97202.97
2022-10-17T03:19:49.677Z,97210.72
2022-10-17T03:22:16.037Z,97205.63
2022-10-17T03:24:42.391Z,97207.50
2022-10-17T03:27:08.752Z,97210.50
2022-10-17T03:29:35.114Z,97215.84
2022-10-17T03:32:01.463Z,97208.63
2022-10-17T03:34:27.827Z,97210.84
2022-10-17T03:36:54.184Z,97209.41
2022-10-17T03:39:20.553Z,97207.06
2022-10-17T03:41:46.912Z,97208.97
2022-10-17T03:44:13.275Z,97213.88
2022-10-17T03:46:39.654Z,97214.75
2022-10-17T03:49:06.034Z,97219.31
2022-10-17T03:51:32.395Z,97220.66
2022-10-17T03:53:58.755Z,97225.66
2022-10-17T03:56:25.125Z,97225.34
2022-10-17T03:58:51.485Z,97227.63
2022-10-17T04:01:17.941Z,97234.78
2022-10-17T04:03:44.403Z,97238.22
2022-10-17T04:06:10.774Z,97243.91
2022-10-17T04:08:37.137Z,97244.59
2022-10-17T04:11:03.505Z,97248.13
2022-10-17T04:13:29.882Z,97248.22
2022-10-17T04:15:56.248Z,97248.34
2022-10-17T04:18:22.596Z,97239.00
2022-10-17T04:20:48.962Z,97233.66
2022-10-17T04:23:15.315Z,97244.09
2022-10-17T04:25:41.690Z,97242.88
2022-10-17T04:28:08.050Z,97252.34
2022-10-17T04:30:34.437Z,97252.34
2022-10-17T04:33:00.788Z,97256.47
2022-10-17T04:35:27.145Z,97260.78
2022-10-17T04:37:53.519Z,97260.34
2022-10-17T04:40:19.894Z,97261.13
2022-10-17T04:42:46.256Z,97277.56
2022-10-17T04:45:12.627Z,97271.38
2022-10-17T04:47:38.993Z,97273.25
2022-10-17T04:50:05.359Z,97270.25
2022-10-17T04:52:31.942Z,97271.28
2022-10-17T04:54:58.568Z,97261.69
2022-10-17T04:57:24.938Z,97260.22
2022-10-17T04:59:51.304Z,97255.94
2022-10-17T05:02:17.660Z,97268.69
2022-10-17T05:04:44.029Z,97264.59
2022-10-17T05:07:10.397Z,97265.22
2022-10-17T05:09:36.755Z,97279.03
2022-10-17T05:12:04.419Z,97278.06
2022-10-17T05:14:33.093Z,97284.22
2022-10-17T05:16:59.467Z,97279.28
2022-10-17T05:19:25.844Z,97278.59
2022-10-17T05:21:52.208Z,97276.19
2022-10-17T05:24:18.573Z,97283.00
2022-10-17T05:26:44.939Z,97283.66
2022-10-17T05:29:11.396Z,97282.59
2022-10-17T05:31:37.760Z,97283.25
2022-10-17T05:34:04.116Z,97278.13
2022-10-17T05:36:30.487Z,97287.47
2022-10-17T05:38:56.858Z,97289.69
2022-10-17T05:41:23.234Z,97291.13
2022-10-17T05:43:49.597Z,97282.09
2022-10-17T05:46:15.962Z,97292.13
2022-10-17T05:48:42.342Z,97295.81
2022-10-17T05:51:08.707Z,97299.34
2022-10-17T05:53:35.073Z,97316.81
2022-10-17T05:56:01.500Z,97321.38
2022-10-17T06:01:14.541Z,97312.78
2022-10-17T06:03:40.951Z,97315.03
2022-10-17T06:06:07.330Z,97324.94
2022-10-17T06:08:33.696Z,97325.59
2022-10-17T06:11:00.057Z,97322.28
2022-10-17T06:13:26.442Z,97322.16
2022-10-17T06:15:52.814Z,97326.94
2022-10-17T06:18:19.181Z,97339.63
2022-10-17T06:20:46.226Z,97346.00
2022-10-17T06:23:12.646Z,97342.34
2022-10-17T06:25:39.006Z,97338.88
2022-10-17T06:28:05.378Z,97343.41
2022-10-17T06:30:31.747Z,97351.53
2022-10-17T06:32:58.123Z,97351.41
2022-10-17T06:35:24.495Z,97360.56
2022-10-17T06:37:50.874Z,97370.00
2022-10-17T06:40:17.246Z,97367.53
2022-10-17T06:42:43.643Z,97361.88
2022-10-17T06:45:10.012Z,97369.88
2022-10-17T06:47:36.394Z,97377.00
2022-10-17T06:50:02.754Z,97377.00
2022-10-17T06:52:29.114Z,97364.53
2022-10-17T06:54:55.548Z,97377.66
2022-10-17T06:57:21.969Z,97384.78
2022-10-17T06:59:48.327Z,97380.88
2022-10-17T07:02:14.691Z,97386.91
2022-10-17T07:04:41.063Z,97389.56
2022-10-17T07:07:07.413Z,97395.56
2022-10-17T07:09:33.778Z,97399.94
2022-10-17T07:12:00.151Z,97409.03
2022-10-17T07:14:26.518Z,97412.59
2022-10-17T07:16:52.889Z,97410.25
2022-10-17T07:19:19.243Z,97420.72
2022-10-17T07:21:45.610Z,97421.84
2022-10-17T07:24:11.983Z,97416.19
2022-10-17T07:26:38.351Z,97422.16
2022-10-17T07:29:04.777Z,97425.84
2022-10-17T07:31:31.180Z,97426.72
2022-10-17T07:33:57.533Z,97432.94
2022-10-17T07:36:23.902Z,97429.16
2022-10-17T07:38:50.271Z,97444.53
2022-10-17T07:41:19.397Z,97444.75
2022-10-17T07:43:48.051Z,97442.72
2022-10-17T07:46:14.404Z,97444.75
2022-10-17T07:48:40.775Z,97440.84
2022-10-17T07:51:07.160Z,97446.19
2022-10-17T07:53:33.523Z,97444.63
2022-10-17T07:55:59.891Z,97452.00
2022-10-17T07:58:26.261Z,97444.53
2022-10-17T08:00:52.676Z,97446.97
2022-10-17T08:03:19.114Z,97446.09
2022-10-17T08:05:45.477Z,97449.88
2022-10-17T08:08:11.852Z,97447.97
2022-10-17T08:10:38.217Z,97449.31
2022-10-17T08:13:04.586Z,97456.53
2022-10-17T08:15:32.041Z,97451.53
2022-10-17T08:17:58.659Z,97453.09
2022-10-17T08:20:25.030Z,97457.97
2022-10-17T08:22:51.404Z,97462.88
2022-10-17T08:25:17.784Z,97461.44
2022-10-17T08:27:44.167Z,97461.34
2022-10-17T08:30:10.528Z,97461.34
2022-10-17T08:32:36.888Z,97456.97
2022-10-17T08:35:03.252Z,97461.44
2022-10-17T08:37:29.889Z,97460.66
2022-10-17T08:39:56.455Z,97468.00
2022-10-17T08:42:22.809Z,97464.44
2022-10-17T08:44:49.172Z,97463.22
2022-10-17T08:47:15.529Z,97470.88
2022-10-17T08:49:41.893Z,97462.88
2022-10-17T08:52:08.273Z,97464.88
2022-10-17T08:54:34.648Z,97474.13
2022-10-17T08:57:01.119Z,97468.56
2022-10-17T08:59:27.603Z,97458.75
2022-10-17T09:01:53.960Z,97468.19
2022-10-17T09:04:20.359Z,97462.22
2022-10-17T09:06:46.762Z,97463.66
2022-10-17T09:09:13.122Z,97465.44
2022-10-17T09:11:39.509Z,97467.88
2022-10-17T09:14:05.866Z,97466.53
2022-10-17T09:16:32.280Z,97463.44
2022-10-17T09:18:58.647Z,97471.09
2022-10-17T09:21:25.013Z,97462.75
2022-10-17T09:23:56.095Z,97471.78
2022-10-17T09:26:30.309Z,97472.56
2022-10-17T09:28:56.749Z,97472.66
2022-10-17T09:31:23.159Z,97476.66
2022-10-17T09:33:54.161Z,97473.53
2022-10-17T09:36:21.359Z,97472.22
2022-10-17T09:38:47.722Z,97468.34
2022-10-17T09:41:39.330Z,97474.13
2022-10-17T09:44:00.429Z,97479.25
2022-10-17T09:46:26.812Z,97478.22
2022-10-17T09:48:53.536Z,97480.34
2022-10-17T09:51:25.768Z,97477.91
2022-10-17T09:53:52.914Z,97477.91
2022-10-17T09:56:19.333Z,97482.34
2022-10-17T09:58:45.717Z,97483.13
2022-10-17T10:01:12.119Z,97473.44
2022-10-17T10:03:38.527Z,97474.22
2022-10-17T10:06:05.077Z,97478.34
2022-10-17T10:08:31.436Z,97484.91
2022-10-17T10:10:57.790Z,97479.00
2022-10-17T10:13:24.160Z,97478.56
2022-10-17T10:15:50.512Z,97474.78
2022-10-17T10:18:16.912Z,97470.22
2022-10-17T10:20:43.340Z,97475.56
2022-10-17T10:23:09.714Z,97476.78
2022-10-17T10:25:36.228Z,97480.91
2022-10-17T10:28:02.639Z,97479.47
2022-10-17T10:30:29.042Z,97474.22
2022-10-17T10:32:55.422Z,97473.53
2022-10-17T10:35:21.796Z,97480.91
2022-10-17T10:37:48.153Z,97477.44
2022-10-17T10:40:14.516Z,97479.34
2022-10-17T10:42:40.870Z,97481.56
2022-10-17T10:45:09.314Z,97482.25
2022-10-17T10:47:38.337Z,97488.34
2022-10-17T10:50:05.166Z,97481.47
2022-10-17T10:52:31.536Z,97483.66
2022-10-17T10:54:57.891Z,97485.69
2022-10-17T10:57:24.274Z,97475.34
2022-10-17T10:59:50.644Z,97480.78
2022-10-17T11:02:17.010Z,97481.00
2022-10-17T11:04:43.377Z,97474.69
2022-10-17T11:07:09.750Z,97480.34
2022-10-17T11:09:36.113Z,97483.03
2022-10-17T11:12:02.477Z,97477.44
2022-10-17T11:14:28.862Z,97477.91
2022-10-17T11:16:55.237Z,97477.34
2022-10-17T11:19:21.603Z,97476.78
2022-10-17T11:21:47.969Z,97473.00
2022-10-17T11:24:14.447Z,97465.34
2022-10-17T11:26:41.087Z,97459.88
2022-10-17T11:29:07.607Z,97456.53
2022-10-17T11:31:34.014Z,97455.44
2022-10-17T11:34:00.376Z,97453.19
2022-10-17T11:36:26.747Z,97450.75
2022-10-17T11:38:53.114Z,97456.53
2022-10-17T11:41:19.483Z,97455.75
2022-10-17T11:43:45.836Z,97450.09
2022-10-17T11:46:12.204Z,97454.97
2022-10-17T11:48:38.589Z,97453.66
2022-10-17T11:53:51.496Z,97447.63
2022-10-17T11:56:17.897Z,97445.50
2022-10-17T11:58:44.289Z,97443.38
2022-10-17T12:01:10.655Z,97441.06
2022-10-17T12:03:37.007Z,97437.94
2022-10-17T12:06:03.389Z,97437.63
2022-10-17T12:08:31.251Z,97430.94
2022-10-17T12:10:57.852Z,97435.06
2022-10-17T12:13:24.204Z,97445.19
2022-10-17T12:15:50.556Z,97439.84
2022-10-17T12:18:16.931Z,97433.41
2022-10-17T12:20:43.289Z,97428.16
2022-10-17T12:23:09.655Z,97423.59
2022-10-17T12:25:36.056Z,97431.59
2022-10-17T12:28:02.446Z,97425.47
2022-10-17T12:30:28.816Z,97424.69
2022-10-17T12:33:05.614Z,97423.72
2022-10-17T12:35:32.821Z,97417.13
2022-10-17T12:37:59.465Z,97411.03
2022-10-17T12:40:25.869Z,97412.47
2022-10-17T12:42:52.235Z,97408.69
2022-10-17T12:45:18.606Z,97403.25
2022-10-17T12:47:44.988Z,97401.13
2022-10-17T12:50:11.744Z,97396.56
2022-10-17T12:52:38.104Z,97389.78
2022-10-17T12:55:12.073Z,97380.22
2022-10-17T12:57:39.317Z,97374.88
2022-10-17T13:00:05.683Z,97372.44
2022-10-17T13:02:32.036Z,97381.41
2022-10-17T13:04:58.403Z,97380.78
2022-10-17T13:07:24.758Z,97375.66
2022-10-17T13:09:51.116Z,97382.56
2022-10-17T13:12:17.494Z,97386.44
2022-10-17T13:14:43.871Z,97378.00
2022-10-17T13:17:10.235Z,97374.09
2022-10-17T13:22:22.898Z,97371.09
2022-10-17T13:24:49.251Z,97367.75
2022-10-17T13:27:15.682Z,97364.53
2022-10-17T13:29:42.080Z,97364.31
2022-10-17T13:32:08.444Z,97360.53
2022-10-17T13:34:34.812Z,97369.56
2022-10-17T13:37:01.172Z,97362.41
2022-10-17T13:39:44.820Z,97363.97
2022-10-17T13:42:13.873Z,97362.19
2022-10-17T13:44:43.337Z,97357.94
2022-10-17T13:47:10.058Z,97369.84
2022-10-17T13:49:36.440Z,97367.34
2022-10-17T13:52:02.791Z,97363.81
2022-10-17T13:54:29.166Z,97364.59
2022-10-17T13:59:41.815Z,97358.19
2022-10-17T14:02:08.169Z,97357.94
2022-10-17T14:04:56.625Z,97357.28
2022-10-17T14:07:20.892Z,97364.19
2022-10-17T14:09:47.269Z,97360.63
2022-10-17T14:12:13.786Z,97350.06
2022-10-17T14:15:05.279Z,97361.06
2022-10-17T14:17:26.660Z,97357.06
2022-10-17T14:20:05.803Z,97356.19
2022-10-17T14:22:39.649Z,97351.25
2022-10-17T14:25:06.005Z,97344.16
2022-10-17T14:27:32.835Z,97349.28
2022-10-17T14:29:59.543Z,97340.38
2022-10-17T14:32:25.951Z,97349.81
2022-10-17T14:34:52.333Z,97334.66
2022-10-17T14:37:18.722Z,97342.81
2022-10-17T14:39:45.184Z,97341.34
2022-10-17T14:42:11.537Z,97347.47
2022-10-17T14:44:37.898Z,97348.25
2022-10-17T14:47:30.376Z,97346.47
2022-10-17T14:49:50.616Z,97346.69
2022-10-17T14:52:18.841Z,97349.06
2022-10-17T14:54:45.448Z,97348.41
2022-10-17T14:57:11.912Z,97350.16
2022-10-17T14:59:53.434Z,97352.16
2022-10-17T15:02:20.854Z,97354.03
2022-10-17T15:04:47.214Z,97354.81
2022-10-17T15:07:13.585Z,97350.53
2022-10-17T15:09:39.958Z,97349.06
2022-10-17T15:12:06.321Z,97359.19
2022-10-17T15:14:32.688Z,97356.28
2022-10-17T15:16:59.057Z,97351.31
2022-10-17T15:19:25.431Z,97357.19
2022-10-17T15:21:51.805Z,97352.59
2022-10-17T15:24:18.174Z,97359.09
2022-10-17T15:26:44.607Z,97362.88
2022-10-17T15:29:11.034Z,97358.63
2022-10-17T15:31:37.420Z,97359.63
2022-10-17T15:34:03.797Z,97361.75
2022-10-17T15:36:30.164Z,97358.84
2022-10-17T15:38:56.536Z,97366.50
2022-10-17T15:41:22.911Z,97366.19
2022-10-17T15:43:49.279Z,97360.19
2022-10-17T15:46:15.633Z,97367.63
2022-10-17T15:48:41.994Z,97362.00
2022-10-17T15:51:08.369Z,97369.06
2022-10-17T15:53:34.773Z,97374.97
2022-10-17T15:56:01.139Z,97377.19
2022-10-17T15:58:27.514Z,97373.41
2022-10-17T16:00:53.919Z,97381.88
2022-10-17T16:06:09.554Z,97382.44
2022-10-17T16:08:38.481Z,97388.47
2022-10-17T16:11:04.863Z,97395.53
2022-10-17T16:13:31.227Z,97391.75
2022-10-17T16:15:57.594Z,97391.75
2022-10-17T16:18:23.970Z,97407.25
2022-10-17T16:20:50.335Z,97403.47
2022-10-17T16:23:16.701Z,97405.81
2022-10-17T16:25:43.069Z,97397.09
2022-10-17T16:28:09.424Z,97396.31
2022-10-17T16:30:35.789Z,97400.31
2022-10-17T16:33:02.154Z,97408.56
2022-10-17T16:35:31.877Z,97411.69
2022-10-17T16:38:01.412Z,97414.16
2022-10-17T16:40:27.790Z,97420.06
2022-10-17T16:42:54.151Z,97422.94
2022-10-17T16:45:20.534Z,97428.84
2022-10-17T16:47:46.937Z,97446.06
2022-10-17T16:50:13.292Z,97445.28
2022-10-17T16:52:39.712Z,97445.19
2022-10-17T16:55:06.116Z,97449.41
2022-10-17T16:57:32.521Z,97450.41
2022-10-17T16:59:58.920Z,97449.28
2022-10-17T17:02:25.279Z,97460.31
2022-10-17T17:04:51.659Z,97462.22
2022-10-17T17:07:18.034Z,97458.66
2022-10-17T17:09:44.408Z,97465.09
2022-10-17T17:12:10.795Z,97452.97
2022-10-17T17:14:37.166Z,97460.41
2022-10-17T17:17:03.575Z,97473.75
2022-10-17T17:19:29.946Z,97469.56
2022-10-17T17:21:56.305Z,97469.66
2022-10-17T17:24:22.683Z,97476.56
2022-10-17T17:26:49.036Z,97484.88
2022-10-17T17:29:15.414Z,97486.00
2022-10-17T17:31:41.780Z,97480.88
2022-10-17T17:34:08.142Z,97481.91
2022-10-17T17:36:34.720Z,97488.03
2022-10-17T17:39:01.092Z,97489.78
2022-10-17T17:41:27.454Z,97479.56
2022-10-17T17:43:53.834Z,97495.69
2022-10-17T17:46:20.192Z,97492.91
2022-10-17T17:48:46.559Z,97487.81
2022-10-17T17:51:12.921Z,97494.25
2022-10-17T17:53:39.280Z,97494.91
2022-10-17T17:56:05.648Z,97491.69
2022-10-17T17:58:32.005Z,97505.81
2022-10-17T18:00:58.507Z,97513.81
2022-10-17T18:03:24.896Z,97511.25
2022-10-17T18:05:51.256Z,97534.53
2022-10-17T18:08:17.629Z,97530.63
2022-10-17T18:10:43.983Z,97519.31
2022-10-17T18:13:10.353Z,97515.84
2022-10-17T18:15:36.708Z,97511.16
2022-10-17T18:18:03.067Z,97517.75
2022-10-17T18:20:29.433Z,97518.06
2022-10-17T18:22:59.296Z,97526.31
2022-10-17T18:25:28.334Z,97533.63
2022-10-17T18:27:54.694Z,97524.19
2022-10-17T18:30:22.548Z,97528.63
2022-10-17T18:32:52.243Z,97527.28
2022-10-17T18:35:18.615Z,97528.97
2022-10-17T18:37:44.987Z,97532.53
2022-10-17T18:40:11.368Z,97524.75
2022-10-17T18:42:37.733Z,97526.53
2022-10-17T18:45:04.129Z,97525.94
2022-10-17T18:47:30.635Z,97518.84
2022-10-17T18:49:57.135Z,97518.84
2022-10-17T18:52:23.510Z,97518.53
2022-10-17T18:54:49.871Z,97522.31
2022-10-17T18:57:16.242Z,97516.28
2022-10-17T18:59:42.601Z,97515.94
2022-10-17T19:02:08.973Z,97521.28
2022-10-17T19:04:35.339Z,97526.06
2022-10-17T19:07:01.721Z,97529.84
2022-10-17T19:09:28.090Z,97531.41
2022-10-17T19:11:54.454Z,97520.41
2022-10-17T19:14:20.836Z,97523.84
2022-10-17T19:16:47.233Z,97532.19
2022-10-17T19:19:13.593Z,97540.78
2022-10-17T19:21:39.952Z,97544.66
2022-10-17T19:24:06.318Z,97544.78
2022-10-17T19:26:32.687Z,97550.34
2022-10-17T19:28:59.142Z,97548.31
2022-10-17T19:31:27.123Z,97547.53
2022-10-17T19:33:53.800Z,97539.75
2022-10-17T19:36:20.176Z,97550.13
2022-10-17T19:38:46.539Z,97549.22
2022-10-17T19:41:12.897Z,97557.47
2022-10-17T19:43:39.272Z,97555.13
2022-10-17T19:46:05.633Z,97551.91
2022-10-17T19:48:32.003Z,97553.00
2022-10-17T19:50:58.373Z,97562.59
2022-10-17T19:53:24.742Z,97573.81
2022-10-17T19:55:51.100Z,97563.47
2022-10-17T19:58:17.461Z,97562.56
2022-10-17T20:00:43.834Z,97555.13
2022-10-17T20:03:10.201Z,97560.13
2022-10-17T20:05:36.565Z,97551.31
2022-10-17T20:08:02.934Z,97556.00
2022-10-17T20:10:29.307Z,97556.69
2022-10-17T20:12:55.666Z,97549.56
2022-10-17T20:15:22.041Z,97551.56
2022-10-17T20:17:48.414Z,97559.56
2022-10-17T20:20:14.772Z,97570.94
2022-10-17T20:22:41.137Z,97576.84
2022-10-17T20:25:07.492Z,97579.72
2022-10-17T20:27:33.853Z,97583.84
2022-10-17T20:30:00.214Z,97583.06
2022-10-17T20:32:26.582Z,97578.41
2022-10-17T20:34:52.950Z,97582.84
2022-10-17T20:37:19.323Z,97583.38
2022-10-17T20:39:45.698Z,97580.72
2022-10-17T20:42:12.073Z,97588.06
2022-10-17T20:44:38.475Z,97587.78
2022-10-17T20:47:11.715Z,97575.72
2022-10-17T20:49:42.436Z,97575.06
2022-10-17T20:52:11.555Z,97573.97
2022-10-17T20:54:37.917Z,97581.75
2022-10-17T20:57:05.001Z,97577.06
2022-10-17T20:59:31.564Z,97584.97
2022-10-17T21:01:57.975Z,97578.94
2022-10-17T21:07:10.824Z,97593.00
2022-10-17T21:09:37.180Z,97593.53
2022-10-17T21:12:03.565Z,97598.53
2022-10-17T21:14:29.986Z,97595.75
2022-10-17T21:16:58.047Z,97592.63
2022-10-17T21:19:26.277Z,97591.19
2022-10-17T21:21:52.649Z,97584.53
2022-10-17T21:24:19.008Z,97585.72
2022-10-17T21:26:45.391Z,97590.97
2022-10-17T21:29:11.764Z,97594.19
2022-10-17T21:31:38.136Z,97592.63
2022-10-17T21:34:04.506Z,97598.75
2022-10-17T21:36:30.916Z,97600.53
2022-10-17T21:38:57.337Z,97597.09
2022-10-17T21:41:23.771Z,97593.75
2022-10-17T21:43:50.133Z,97594.75
2022-10-17T21:46:16.572Z,97600.09
2022-10-17T21:48:42.994Z,97594.19
2022-10-17T21:51:09.366Z,97600.31
2022-10-17T21:53:35.738Z,97593.53
2022-10-17T21:56:02.096Z,97592.31
2022-10-17T21:58:28.473Z,97590.75
2022-10-17T22:00:54.833Z,97596.41
2022-10-17T22:03:21.191Z,97595.63
2022-10-17T22:05:47.544Z,97593.16
2022-10-17T22:08:13.905Z,97594.84
2022-10-17T22:10:40.281Z,97585.16
2022-10-17T22:13:06.688Z,97588.53
2022-10-17T22:15:33.057Z,97584.94
2022-10-17T22:17:59.421Z,97585.28
2022-10-17T22:20:25.791Z,97590.97
2022-10-17T22:22:52.152Z,97588.59
2022-10-17T22:25:18.530Z,97588.50
2022-10-17T22:27:44.891Z,97585.63
2022-10-17T22:30:11.249Z,97595.41
2022-10-17T22:32:37.607Z,97591.03
2022-10-17T22:35:03.971Z,97593.16
2022-10-17T22:37:30.796Z,97584.03
2022-10-17T22:39:57.300Z,97576.81
2022-10-17T22:42:23.666Z,97581.03
2022-10-17T22:44:50.034Z,97583.16
2022-10-17T22:47:16.414Z,97583.41
2022-10-17T22:49:42.782Z,97587.19
2022-10-17T22:52:09.147Z,97587.50
2022-10-17T22:54:35.511Z,97582.72
2022-10-17T22:57:01.879Z,97582.38
2022-10-17T22:59:28.244Z,97578.59
2022-10-17T23:01:54.660Z,97580.81
2022-10-17T23:04:21.053Z,97580.03
2022-10-17T23:06:47.413Z,97587.97
2022-10-17T23:09:13.846Z,97582.41
2022-10-17T23:11:40.270Z,97584.28
2022-10-17T23:14:06.650Z,97581.16
2022-10-17T23:16:33.011Z,97582.16
2022-10-17T23:18:59.362Z,97580.72
2022-10-17T23:21:25.731Z,97587.81
2022-10-17T23:23:52.087Z,97583.25
2022-10-17T23:26:18.467Z,97574.69
2022-10-17T23:28:44.908Z,97583.81
2022-10-17T23:31:11.330Z,97586.94
2022-10-17T23:33:37.701Z,97584.50
2022-10-17T23:36:04.079Z,97586.41
2022-10-17T23:38:30.440Z,97579.03
2022-10-17T23:40:56.800Z,97585.63
2022-10-17T23:43:23.152Z,97589.84
2022-10-17T23:45:49.517Z,97582.50
2022-10-17T23:48:15.876Z,97588.38
2022-10-17T23:50:42.232Z,97582.50
2022-10-17T23:53:08.592Z,97578.94
2022-10-17T23:55:34.968Z,97577.38
2022-10-17T23:58:01.333Z,97579.38
